createdAt,value
2022-12-03T00:00:46.132Z,103148.72
2022-12-03T00:03:14.575Z,103155.56
2022-12-03T00:05:48.882Z,103160.75
2022-12-03T00:08:21.167Z,103161.19
2022-12-03T00:10:49.005Z,103162.06
2022-12-03T00:13:16.852Z,103157.25
2022-12-03T00:15:45.252Z,103167.09
2022-12-03T00:18:13.190Z,103173.66
2022-12-03T00:20:41.049Z,103172.72
2022-12-03T00:23:09.278Z,103184.03
2022-12-03T00:25:37.031Z,103173.38
2022-12-03T00:28:05.055Z,103177.28
2022-12-03T00:30:33.313Z,103182.44
2022-12-03T00:33:01.348Z,103174.59
2022-12-03T00:35:29.218Z,103160.75
2022-12-03T00:37:57.449Z,103183.47
2022-12-03T00:40:25.316Z,103181.63
2022-12-03T00:42:53.105Z,103181.56
2022-12-03T00:45:21.248Z,103187.19
2022-12-03T00:47:48.916Z,103168.84
2022-12-03T00:50:16.827Z,103190.78
2022-12-03T00:52:45.030Z,103193.84
2022-12-03T00:55:12.847Z,103194.19
2022-12-03T00:57:40.727Z,103192.37
2022-12-03T01:00:10.243Z,103181.84
2022-12-03T01:02:38.070Z,103202.19
2022-12-03T01:05:06.943Z,103205.00
2022-12-03T01:07:36.584Z,103205.00
2022-12-03T01:10:05.960Z,103202.87
2022-12-03T01:12:33.562Z,103203.31
2022-12-03T01:15:05.696Z,103214.13
2022-12-03T01:17:33.497Z,103211.03
2022-12-03T01:20:12.047Z,103214.75
2022-12-03T01:22:39.788Z,103212.91
2022-12-03T01:25:08.272Z,103207.72
2022-12-03T01:27:35.997Z,103215.69
2022-12-03T01:30:05.329Z,103214.81
2022-12-03T01:32:33.457Z,103216.00
2022-12-03T01:35:01.543Z,103214.47
2022-12-03T01:37:31.718Z,103221.12
2022-12-03T01:39:59.864Z,103213.56
2022-12-03T01:42:32.015Z,103224.03
2022-12-03T01:45:01.724Z,103216.94
2022-12-03T01:47:37.186Z,103221.31
2022-12-03T01:50:14.878Z,103233.53
2022-12-03T01:52:43.043Z,103233.06
2022-12-03T01:55:18.554Z,103238.84
2022-12-03T01:57:53.154Z,103237.28
2022-12-03T02:00:24.152Z,103237.41
2022-12-03T02:02:55.701Z,103236.31
2022-12-03T02:05:32.767Z,103229.66
2022-12-03T02:08:01.261Z,103225.69
2022-12-03T02:10:35.170Z,103242.44
2022-12-03T02:13:08.068Z,103242.91
2022-12-03T02:15:40.420Z,103244.84
2022-12-03T02:18:09.401Z,103247.84
2022-12-03T02:20:47.409Z,103251.75
2022-12-03T02:23:36.773Z,103242.31
2022-12-03T02:26:05.115Z,103251.62
2022-12-03T02:28:33.205Z,103262.47
2022-12-03T02:31:01.165Z,103255.28
2022-12-03T02:33:33.049Z,103252.84
2022-12-03T02:36:03.782Z,103255.44
2022-12-03T02:38:35.626Z,103249.56
2022-12-03T02:41:09.737Z,103249.94
2022-12-03T02:43:38.879Z,103255.38
2022-12-03T02:46:08.572Z,103253.84
2022-12-03T02:48:39.106Z,103249.69
2022-12-03T02:51:10.923Z,103263.66
2022-12-03T02:53:45.839Z,103261.72
2022-12-03T02:56:24.781Z,103268.34
2022-12-03T02:58:55.394Z,103269.44
2022-12-03T03:01:23.898Z,103265.41
2022-12-03T03:03:53.132Z,103272.06
2022-12-03T03:06:21.757Z,103273.19
2022-12-03T03:08:50.299Z,103276.09
2022-12-03T03:11:18.070Z,103277.31
2022-12-03T03:13:48.767Z,103283.00
2022-12-03T03:16:17.065Z,103276.34
2022-12-03T03:18:45.144Z,103280.78
2022-12-03T03:21:13.512Z,103278.56
2022-12-03T03:23:41.679Z,103285.22
2022-12-03T03:26:14.852Z,103282.41
2022-12-03T03:28:46.673Z,103283.81
2022-12-03T03:31:18.366Z,103290.16
2022-12-03T03:33:48.547Z,103283.44
2022-12-03T03:36:17.143Z,103292.59
2022-12-03T03:38:48.191Z,103295.38
2022-12-03T03:41:17.142Z,103293.16
2022-12-03T03:43:46.513Z,103287.16
2022-12-03T03:46:14.915Z,103286.00
2022-12-03T03:48:44.145Z,103286.56
2022-12-03T03:51:13.517Z,103289.88
2022-12-03T03:53:44.709Z,103289.28
2022-12-03T03:56:13.138Z,103291.50
2022-12-03T03:58:41.204Z,103297.16
2022-12-03T04:01:09.888Z,103290.44
2022-12-03T04:03:38.177Z,103293.00
2022-12-03T04:06:06.643Z,103306.12
2022-12-03T04:08:34.482Z,103300.03
2022-12-03T04:11:21.541Z,103299.81
2022-12-03T04:13:50.562Z,103300.63
2022-12-03T04:16:18.738Z,103293.75
2022-12-03T04:18:47.906Z,103301.91
2022-12-03T04:21:37.254Z,103301.00
2022-12-03T04:24:10.388Z,103307.34
2022-12-03T04:26:56.509Z,103301.50
2022-12-03T04:29:24.966Z,103306.28
2022-12-03T04:32:10.965Z,103303.78
2022-12-03T04:34:57.696Z,103304.87
2022-12-03T04:37:25.496Z,103310.34
2022-12-03T04:39:53.770Z,103302.94
2022-12-03T04:42:21.842Z,103302.47
2022-12-03T04:44:50.456Z,103296.12
2022-12-03T04:47:20.931Z,103300.34
2022-12-03T04:49:50.868Z,103304.72
2022-12-03T04:52:20.258Z,103309.38
2022-12-03T04:54:48.184Z,103314.03
2022-12-03T04:57:16.135Z,103311.19
2022-12-03T04:59:47.143Z,103319.72
2022-12-03T05:02:14.937Z,103315.69
2022-12-03T05:04:42.743Z,103320.00
2022-12-03T05:07:11.675Z,103321.56
2022-12-03T05:09:42.539Z,103323.72
2022-12-03T05:12:10.608Z,103317.44
2022-12-03T05:14:38.710Z,103314.41
2022-12-03T05:17:06.717Z,103316.47
2022-12-03T05:19:57.520Z,103328.66
2022-12-03T05:22:25.714Z,103326.22
2022-12-03T05:24:53.719Z,103332.97
2022-12-03T05:27:24.567Z,103327.78
2022-12-03T05:29:53.222Z,103333.19
2022-12-03T05:32:21.264Z,103330.44
2022-12-03T05:34:49.127Z,103334.81
2022-12-03T05:37:17.388Z,103334.81
2022-12-03T05:39:45.336Z,103334.06
2022-12-03T05:42:31.464Z,103318.66
2022-12-03T05:44:59.634Z,103329.62
2022-12-03T05:47:27.505Z,103334.72
2022-12-03T05:49:55.380Z,103342.44
2022-12-03T05:52:23.636Z,103326.25
2022-12-03T05:54:54.766Z,103346.34
2022-12-03T05:57:23.096Z,103336.19
2022-12-03T05:59:51.022Z,103338.81
2022-12-03T06:02:18.921Z,103336.50
2022-12-03T06:04:47.027Z,103329.47
2022-12-03T06:07:17.967Z,103335.47
2022-12-03T06:09:45.758Z,103341.69
2022-12-03T06:12:14.068Z,103334.87
2022-12-03T06:14:42.091Z,103343.62
2022-12-03T06:17:09.888Z,103319.25
2022-12-03T06:19:38.315Z,103334.69
2022-12-03T06:22:06.157Z,103336.22
2022-12-03T06:24:33.882Z,103341.53
2022-12-03T06:27:02.061Z,103339.94
2022-12-03T06:29:30.021Z,103338.81
2022-12-03T06:31:57.843Z,103343.91
2022-12-03T06:34:25.876Z,103340.00
2022-12-03T06:36:53.756Z,103335.22
2022-12-03T06:39:22.220Z,103338.81
2022-12-03T06:41:50.463Z,103340.22
2022-12-03T06:44:18.339Z,103335.91
2022-12-03T06:46:46.416Z,103325.94
2022-12-03T06:49:14.613Z,103344.44
2022-12-03T06:51:42.391Z,103338.28
2022-12-03T06:54:10.209Z,103332.56
2022-12-03T06:56:44.893Z,103323.78
2022-12-03T06:59:16.963Z,103327.09
2022-12-03T07:01:45.315Z,103344.75
2022-12-03T07:04:13.156Z,103347.66
2022-12-03T07:06:41.010Z,103344.81
2022-12-03T07:09:09.078Z,103338.91
2022-12-03T07:11:40.809Z,103338.50
2022-12-03T07:14:11.737Z,103332.88
2022-12-03T07:16:40.468Z,103338.66
2022-12-03T07:19:08.454Z,103333.56
2022-12-03T07:21:36.596Z,103328.19
2022-12-03T07:24:04.549Z,103333.38
2022-12-03T07:26:32.380Z,103327.87
2022-12-03T07:29:04.301Z,103332.69
2022-12-03T07:31:32.219Z,103332.31
2022-12-03T07:34:01.675Z,103334.66
2022-12-03T07:36:32.593Z,103333.75
2022-12-03T07:39:00.776Z,103323.06
2022-12-03T07:41:28.529Z,103326.16
2022-12-03T07:43:56.812Z,103337.38
2022-12-03T07:46:25.171Z,103325.28
2022-12-03T07:48:53.002Z,103314.44
2022-12-03T07:51:20.963Z,103326.56
2022-12-03T07:53:49.104Z,103321.63
2022-12-03T07:56:17.008Z,103320.03
2022-12-03T07:58:48.142Z,103319.91
2022-12-03T08:01:16.240Z,103322.22
2022-12-03T08:03:44.615Z,103327.31
2022-12-03T08:06:12.412Z,103315.00
2022-12-03T08:08:44.013Z,103327.59
2022-12-03T08:11:16.860Z,103317.47
2022-12-03T08:13:47.896Z,103318.53
2022-12-03T08:16:21.913Z,103319.72
2022-12-03T08:18:51.159Z,103318.75
2022-12-03T08:21:21.852Z,103307.38
2022-12-03T08:23:49.852Z,103313.44
2022-12-03T08:26:25.471Z,103315.50
2022-12-03T08:28:54.279Z,103315.91
2022-12-03T08:31:33.536Z,103313.88
2022-12-03T08:34:18.424Z,103305.38
2022-12-03T08:36:47.885Z,103312.41
2022-12-03T08:39:34.272Z,103309.94
2022-12-03T08:42:39.190Z,103304.37
2022-12-03T08:45:29.530Z,103311.37
2022-12-03T08:48:04.215Z,103298.13
2022-12-03T08:50:43.942Z,103307.38
2022-12-03T08:53:14.656Z,103300.97
2022-12-03T08:55:53.717Z,103300.22
2022-12-03T08:58:33.673Z,103301.37
2022-12-03T09:01:11.248Z,103301.09
2022-12-03T09:03:47.068Z,103297.59
2022-12-03T09:06:15.262Z,103293.12
2022-12-03T09:08:43.448Z,103302.25
2022-12-03T09:11:11.430Z,103310.50
2022-12-03T09:13:39.793Z,103310.00
2022-12-03T09:16:07.978Z,103305.63
2022-12-03T09:18:38.912Z,103306.69
2022-12-03T09:21:07.652Z,103310.78
2022-12-03T09:23:35.685Z,103298.06
2022-12-03T09:26:03.461Z,103292.84
2022-12-03T09:28:37.670Z,103305.09
2022-12-03T09:31:05.579Z,103299.97
2022-12-03T09:33:36.913Z,103304.03
2022-12-03T09:36:05.126Z,103311.25
2022-12-03T09:38:33.533Z,103304.59
2022-12-03T09:41:01.469Z,103302.19
2022-12-03T09:44:02.856Z,103300.91
2022-12-03T09:46:23.402Z,103308.37
2022-12-03T09:48:51.640Z,103309.44
2022-12-03T09:51:20.432Z,103291.53
2022-12-03T09:53:49.896Z,103306.22
2022-12-03T09:56:23.642Z,103300.16
2022-12-03T09:58:51.992Z,103307.84
2022-12-03T10:01:22.433Z,103300.31
2022-12-03T10:03:53.873Z,103309.66
2022-12-03T10:06:25.024Z,103312.50
2022-12-03T10:08:56.514Z,103309.13
2022-12-03T10:11:26.131Z,103304.87
2022-12-03T10:13:58.930Z,103301.13
2022-12-03T10:16:30.460Z,103305.94
2022-12-03T10:19:01.212Z,103301.22
2022-12-03T10:21:38.312Z,103298.06
2022-12-03T10:24:22.076Z,103297.28
2022-12-03T10:26:52.212Z,103301.53
2022-12-03T10:29:33.615Z,103299.56
2022-12-03T10:32:09.599Z,103294.09
2022-12-03T10:34:40.696Z,103290.87
2022-12-03T10:37:20.577Z,103293.84
2022-12-03T10:39:58.054Z,103293.09
2022-12-03T10:42:31.746Z,103290.03
2022-12-03T10:45:13.010Z,103293.63
2022-12-03T10:47:41.382Z,103277.37
2022-12-03T10:50:20.554Z,103288.16
2022-12-03T10:52:48.557Z,103290.66
2022-12-03T10:55:16.946Z,103292.53
2022-12-03T10:57:48.568Z,103291.50
2022-12-03T11:00:19.677Z,103287.97
2022-12-03T11:02:56.773Z,103292.19
2022-12-03T11:05:28.662Z,103295.97
2022-12-03T11:07:57.342Z,103299.19
2022-12-03T11:10:25.632Z,103297.59
2022-12-03T11:13:30.794Z,103295.50
2022-12-03T11:15:59.909Z,103297.94
2022-12-03T11:18:37.238Z,103302.13
2022-12-03T11:21:11.834Z,103306.44
2022-12-03T11:23:46.323Z,103299.50
2022-12-03T11:26:29.458Z,103303.94
2022-12-03T11:28:59.007Z,103308.50
2022-12-03T11:31:45.442Z,103304.97
2022-12-03T11:34:22.954Z,103310.87
2022-12-03T11:37:12.596Z,103312.75
2022-12-03T11:39:53.349Z,103306.62
2022-12-03T11:42:27.679Z,103306.69
2022-12-03T11:45:05.697Z,103309.34
2022-12-03T11:47:42.601Z,103313.63
2022-12-03T11:50:36.128Z,103303.28
2022-12-03T11:53:27.255Z,103308.25
2022-12-03T11:56:09.321Z,103309.19
2022-12-03T11:58:39.900Z,103316.75
2022-12-03T12:01:08.821Z,103314.97
2022-12-03T12:03:49.629Z,103309.84
2022-12-03T12:06:20.800Z,103313.50
2022-12-03T12:08:51.793Z,103314.31
2022-12-03T12:11:34.382Z,103307.72
2022-12-03T12:14:06.246Z,103314.97
2022-12-03T12:16:51.670Z,103322.81
2022-12-03T12:19:31.951Z,103325.13
2022-12-03T12:22:27.463Z,103323.00
2022-12-03T12:24:58.085Z,103316.06
2022-12-03T12:27:51.317Z,103321.19
2022-12-03T12:30:22.061Z,103316.28
2022-12-03T12:32:58.088Z,103319.16
2022-12-03T12:35:28.455Z,103320.91
2022-12-03T12:38:11.074Z,103315.41
2022-12-03T12:40:41.105Z,103324.16
2022-12-03T12:43:14.412Z,103325.72
2022-12-03T12:45:45.827Z,103322.06
2022-12-03T12:48:13.661Z,103326.66
2022-12-03T12:50:47.361Z,103323.44
2022-12-03T12:53:26.601Z,103327.38
2022-12-03T12:56:01.923Z,103333.53
2022-12-03T12:58:33.668Z,103333.78
2022-12-03T13:01:12.243Z,103328.28
2022-12-03T13:03:43.789Z,103332.88
2022-12-03T13:06:16.303Z,103325.22
2022-12-03T13:08:49.320Z,103333.88
2022-12-03T13:11:45.974Z,103335.50
2022-12-03T13:14:22.630Z,103337.38
2022-12-03T13:16:57.160Z,103334.66
2022-12-03T13:19:27.630Z,103334.28
2022-12-03T13:22:01.901Z,103342.16
2022-12-03T13:24:33.423Z,103334.41
2022-12-03T13:27:26.027Z,103339.47
2022-12-03T13:30:07.716Z,103335.59
2022-12-03T13:32:38.220Z,103344.19
2022-12-03T13:35:26.593Z,103344.38
2022-12-03T13:37:59.353Z,103347.53
2022-12-03T13:40:35.243Z,103344.19
2022-12-03T13:43:16.094Z,103341.91
2022-12-03T13:45:47.466Z,103350.94
2022-12-03T13:48:36.041Z,103354.84
2022-12-03T13:51:30.187Z,103347.69
2022-12-03T13:53:59.612Z,103351.91
2022-12-03T13:56:33.334Z,103347.94
2022-12-03T13:59:04.708Z,103356.31
2022-12-03T14:01:33.025Z,103350.59
2022-12-03T14:04:01.761Z,103356.50
2022-12-03T14:06:29.731Z,103354.38
2022-12-03T14:08:57.673Z,103357.28
2022-12-03T14:11:47.220Z,103348.66
2022-12-03T14:14:15.127Z,103363.94
2022-12-03T14:16:43.614Z,103361.91
2022-12-03T14:19:12.049Z,103358.81
2022-12-03T14:21:40.275Z,103362.41
2022-12-03T14:24:08.671Z,103363.94
2022-12-03T14:26:38.812Z,103369.00
2022-12-03T14:29:08.955Z,103361.72
2022-12-03T14:31:37.481Z,103353.44
2022-12-03T14:34:05.319Z,103374.69
2022-12-03T14:36:32.958Z,103375.19
2022-12-03T14:39:01.093Z,103372.41
2022-12-03T14:41:47.341Z,103374.03
2022-12-03T14:44:18.485Z,103383.81
2022-12-03T14:46:46.368Z,103384.16
2022-12-03T14:49:14.729Z,103385.91
2022-12-03T14:51:43.053Z,103383.34
2022-12-03T14:54:11.126Z,103383.84
2022-12-03T14:56:39.016Z,103381.81
2022-12-03T14:59:07.206Z,103383.03
2022-12-03T15:01:35.197Z,103373.56
2022-12-03T15:04:03.452Z,103381.97
2022-12-03T15:06:34.641Z,103385.25
2022-12-03T15:09:02.935Z,103379.97
2022-12-03T15:11:31.186Z,103382.41
2022-12-03T15:13:59.033Z,103386.84
2022-12-03T15:16:27.042Z,103386.53
2022-12-03T15:18:55.396Z,103387.41
2022-12-03T15:21:25.781Z,103386.06
2022-12-03T15:23:53.469Z,103388.44
2022-12-03T15:26:24.651Z,103387.94
2022-12-03T15:28:52.735Z,103393.22
2022-12-03T15:31:20.984Z,103391.09
2022-12-03T15:33:49.481Z,103389.63
2022-12-03T15:36:17.422Z,103391.19
2022-12-03T15:38:45.300Z,103395.28
2022-12-03T15:41:29.419Z,103399.53
2022-12-03T15:43:59.498Z,103400.41
2022-12-03T15:46:28.285Z,103396.84
2022-12-03T15:48:56.598Z,103404.78
2022-12-03T15:51:25.158Z,103399.75
2022-12-03T15:53:53.606Z,103402.78
2022-12-03T15:56:21.513Z,103399.00
2022-12-03T15:58:49.314Z,103400.47
2022-12-03T16:01:20.487Z,103401.84
2022-12-03T16:03:48.899Z,103401.69
2022-12-03T16:06:18.482Z,103400.41
2022-12-03T16:08:47.039Z,103400.69
2022-12-03T16:11:15.342Z,103387.69
2022-12-03T16:13:46.509Z,103395.22
2022-12-03T16:16:14.991Z,103394.94
2022-12-03T16:18:43.920Z,103403.47
2022-12-03T16:21:20.821Z,103409.47
2022-12-03T16:23:53.717Z,103385.09
2022-12-03T16:26:22.224Z,103412.28
2022-12-03T16:28:50.310Z,103415.59
2022-12-03T16:31:22.041Z,103412.00
2022-12-03T16:33:50.170Z,103421.03
2022-12-03T16:36:18.463Z,103407.00
2022-12-03T16:38:46.542Z,103413.78
2022-12-03T16:41:17.665Z,103412.63
2022-12-03T16:43:48.696Z,103414.09
2022-12-03T16:46:19.451Z,103411.53
2022-12-03T16:48:56.648Z,103420.28
2022-12-03T16:51:27.879Z,103418.00
2022-12-03T16:53:56.119Z,103422.53
2022-12-03T16:56:23.996Z,103418.56
2022-12-03T16:58:51.975Z,103428.12
2022-12-03T17:01:23.712Z,103418.94
2022-12-03T17:03:51.682Z,103423.94
2022-12-03T17:06:19.979Z,103411.34
2022-12-03T17:08:50.052Z,103413.56
2022-12-03T17:11:18.619Z,103420.41
2022-12-03T17:13:46.547Z,103422.19
2022-12-03T17:16:15.016Z,103417.88
2022-12-03T17:18:43.197Z,103421.84
2022-12-03T17:21:11.195Z,103415.19
2022-12-03T17:23:39.582Z,103423.41
2022-12-03T17:26:11.277Z,103417.41
2022-12-03T17:28:39.583Z,103417.59
2022-12-03T17:31:07.518Z,103421.34
2022-12-03T17:33:35.448Z,103420.84
2022-12-03T17:36:04.298Z,103424.22
2022-12-03T17:38:38.638Z,103424.97
2022-12-03T17:41:28.181Z,103423.91
2022-12-03T17:44:33.377Z,103424.13
2022-12-03T17:47:14.657Z,103425.41
2022-12-03T17:49:49.860Z,103426.91
2022-12-03T17:52:33.386Z,103425.97
2022-12-03T17:55:13.193Z,103422.97
2022-12-03T17:57:53.697Z,103425.25
2022-12-03T18:00:34.295Z,103425.84
2022-12-03T18:03:13.438Z,103432.69
2022-12-03T18:05:47.329Z,103434.56
2022-12-03T18:08:27.731Z,103441.34
2022-12-03T18:11:03.721Z,103438.62
2022-12-03T18:13:41.045Z,103438.25
2022-12-03T18:16:19.261Z,103435.94
2022-12-03T18:19:04.642Z,103439.22
2022-12-03T18:21:40.198Z,103440.53
2022-12-03T18:24:23.429Z,103443.47
2022-12-03T18:27:05.458Z,103444.94
2022-12-03T18:29:44.549Z,103439.72
2022-12-03T18:32:29.203Z,103445.78
2022-12-03T18:35:08.964Z,103445.53
2022-12-03T18:37:47.851Z,103448.16
2022-12-03T18:40:31.112Z,103451.47
2022-12-03T18:43:13.600Z,103450.91
2022-12-03T18:45:56.655Z,103450.88
2022-12-03T18:48:33.683Z,103448.75
2022-12-03T18:51:30.101Z,103454.69
2022-12-03T18:54:14.895Z,103448.75
2022-12-03T18:56:54.618Z,103455.56
2022-12-03T18:59:34.760Z,103461.22
2022-12-03T19:03:00.671Z,103455.09
2022-12-03T19:05:29.939Z,103457.25
2022-12-03T19:08:19.603Z,103460.56
2022-12-03T19:11:06.746Z,103463.13
2022-12-03T19:13:49.239Z,103468.19
2022-12-03T19:16:25.249Z,103470.53
2022-12-03T19:19:02.776Z,103469.78
2022-12-03T19:21:41.307Z,103474.75
2022-12-03T19:24:26.573Z,103467.91
2022-12-03T19:27:03.408Z,103463.72
2022-12-03T19:29:41.617Z,103473.69
2022-12-03T19:32:17.578Z,103468.75
2022-12-03T19:34:55.781Z,103473.69
2022-12-03T19:37:29.663Z,103469.97
2022-12-03T19:40:04.693Z,103474.47
2022-12-03T19:42:38.878Z,103466.50
2022-12-03T19:45:16.170Z,103482.81
2022-12-03T19:47:55.114Z,103476.47
2022-12-03T19:50:30.049Z,103479.97
2022-12-03T19:53:03.853Z,103488.19
2022-12-03T19:55:41.353Z,103493.44
2022-12-03T19:58:14.557Z,103490.94
2022-12-03T20:00:49.523Z,103486.66
2022-12-03T20:03:24.550Z,103496.66
2022-12-03T20:05:56.418Z,103491.69
2022-12-03T20:08:31.529Z,103486.56
2022-12-03T20:11:16.183Z,103494.47
2022-12-03T20:13:56.285Z,103502.50
2022-12-03T20:16:29.407Z,103494.75
2022-12-03T20:19:00.037Z,103498.13
2022-12-03T20:21:33.267Z,103493.31
2022-12-03T20:24:01.499Z,103496.53
2022-12-03T20:26:29.871Z,103496.22
2022-12-03T20:28:59.024Z,103501.34
2022-12-03T20:31:30.064Z,103496.09
2022-12-03T20:34:00.623Z,103503.84
2022-12-03T20:36:32.848Z,103502.31
2022-12-03T20:39:03.281Z,103505.53
2022-12-03T20:41:31.872Z,103509.69
2022-12-03T20:43:59.670Z,103502.38
2022-12-03T20:46:29.960Z,103509.56
2022-12-03T20:48:59.172Z,103504.94
2022-12-03T20:51:30.359Z,103513.69
2022-12-03T20:54:00.414Z,103512.31
2022-12-03T20:56:39.576Z,103497.16
2022-12-03T20:59:11.264Z,103500.63
2022-12-03T21:01:40.375Z,103505.75
2022-12-03T21:04:10.225Z,103498.56
2022-12-03T21:06:38.087Z,103500.34
2022-12-03T21:09:07.447Z,103504.84
2022-12-03T21:11:36.722Z,103501.50
2022-12-03T21:14:05.307Z,103500.16
2022-12-03T21:17:07.279Z,103500.91
2022-12-03T21:19:27.966Z,103502.75
2022-12-03T21:21:55.832Z,103501.63
2022-12-03T21:24:23.732Z,103501.03
2022-12-03T21:26:51.840Z,103503.06
2022-12-03T21:29:19.648Z,103501.97
2022-12-03T21:31:47.345Z,103496.72
2022-12-03T21:34:15.670Z,103504.50
2022-12-03T21:36:43.660Z,103501.41
2022-12-03T21:39:11.554Z,103504.28
2022-12-03T21:41:39.764Z,103496.78
2022-12-03T21:44:07.633Z,103497.34
2022-12-03T21:47:11.086Z,103507.66
2022-12-03T21:49:24.100Z,103503.59
2022-12-03T21:51:54.670Z,103500.63
2022-12-03T21:54:22.549Z,103502.00
2022-12-03T21:56:50.754Z,103493.53
2022-12-03T21:59:18.665Z,103500.72
2022-12-03T22:01:47.458Z,103498.88
2022-12-03T22:04:15.886Z,103502.31
2022-12-03T22:06:43.769Z,103500.87
2022-12-03T22:09:11.641Z,103508.22
2022-12-03T22:11:39.821Z,103493.22
2022-12-03T22:14:08.846Z,103511.94
2022-12-03T22:16:36.791Z,103500.03
2022-12-03T22:19:08.014Z,103502.31
2022-12-03T22:21:35.946Z,103501.41
2022-12-03T22:24:03.852Z,103503.03
2022-12-03T22:26:33.440Z,103491.16
2022-12-03T22:29:03.070Z,103495.13
2022-12-03T22:31:30.911Z,103483.81
2022-12-03T22:33:59.155Z,103483.97
2022-12-03T22:36:26.909Z,103488.09
2022-12-03T22:38:54.780Z,103488.09
2022-12-03T22:41:23.469Z,103485.41
2022-12-03T22:43:51.260Z,103490.66
2022-12-03T22:46:19.155Z,103491.63
2022-12-03T22:48:47.936Z,103489.78
2022-12-03T22:51:21.784Z,103489.09
2022-12-03T22:54:01.380Z,103494.28
2022-12-03T22:56:30.837Z,103495.16
2022-12-03T22:58:59.381Z,103500.59
2022-12-03T23:01:30.227Z,103502.19
2022-12-03T23:03:58.801Z,103499.72
2022-12-03T23:06:28.276Z,103494.84
2022-12-03T23:08:56.977Z,103500.34
2022-12-03T23:11:25.982Z,103501.97
2022-12-03T23:13:55.103Z,103501.88
2022-12-03T23:16:26.586Z,103504.13
2022-12-03T23:18:54.934Z,103502.47
2022-12-03T23:21:29.911Z,103510.13
2022-12-03T23:24:03.897Z,103511.78
2022-12-03T23:26:35.936Z,103509.94
2022-12-03T23:29:06.305Z,103512.75
2022-12-03T23:31:34.865Z,103514.84
2022-12-03T23:34:03.056Z,103510.91
2022-12-03T23:36:33.013Z,103515.88
2022-12-03T23:39:00.841Z,103512.28
2022-12-03T23:41:28.720Z,103524.34
2022-12-03T23:43:57.388Z,103522.19
2022-12-03T23:46:27.566Z,103522.50
2022-12-03T23:48:55.646Z,103518.69
2022-12-03T23:51:25.056Z,103521.00
2022-12-03T23:53:54.419Z,103519.78
2022-12-03T23:56:25.668Z,103514.97
2022-12-03T23:58:53.915Z,103518.69
